Terminal Aerodrome Forecast
Issued by NWS Cleveland, OH

Home | Current Version | Previous Version | Text Only | Print | Product List | Glossary Off
Versions: 1 2 3 4 5 6 7 8 9 10 11 12 13 14 15 16 17 18

000
FTUS41 KCLE 290500
TAFYNG
TAF
KYNG 290540Z 2906/3006 28005KT P6SM SCT025 BKN035
     FM291500 28007KT P6SM BKN035
     FM300000 26007KT P6SM VCSH BKN050
     FM300300 22004KT P6SM SCT050 BKN080=

USA.gov is the U.S. government's official web portal to all federal, state and local government web resources and services.